createdAt,value
2018-08-22T00:00:32.059Z,61.14
2018-08-22T00:01:32.049Z,62.27
2018-08-22T00:02:32.078Z,62.37
2018-08-22T00:03:32.027Z,61.77
2018-08-22T00:04:32.014Z,61.77
2018-08-22T00:05:32.004Z,61.87
2018-08-22T00:06:31.992Z,61.77
2018-08-22T00:07:31.982Z,61.77
2018-08-22T00:08:31.982Z,61.57
2018-08-22T00:09:31.985Z,61.57
2018-08-22T00:10:31.949Z,61.97
2018-08-22T00:11:31.936Z,62.07
2018-08-22T00:12:31.927Z,61.87
2018-08-22T00:13:31.914Z,61.87
2018-08-22T00:14:31.905Z,62.27
2018-08-22T00:15:31.911Z,62.57
2018-08-22T00:16:31.884Z,62.70
2018-08-22T00:17:31.874Z,62.67
2018-08-22T00:18:31.865Z,62.80
2018-08-22T00:19:31.857Z,62.27
2018-08-22T00:20:31.857Z,62.27
2018-08-22T00:21:31.831Z,62.67
2018-08-22T00:22:31.939Z,61.47
2018-08-22T00:23:31.820Z,62.27
2018-08-22T00:24:31.799Z,61.97
2018-08-22T00:25:31.783Z,62.57
2018-08-22T00:26:31.778Z,62.07
2018-08-22T00:27:31.762Z,62.07
2018-08-22T00:28:31.752Z,61.77
2018-08-22T00:29:31.778Z,61.87
2018-08-22T00:30:31.729Z,62.07
2018-08-22T00:31:31.720Z,62.07
2018-08-22T00:32:31.726Z,61.77
2018-08-22T00:33:31.695Z,62.17
2018-08-22T00:34:31.688Z,61.57
2018-08-22T00:35:31.671Z,62.07
2018-08-22T00:36:31.663Z,61.57
2018-08-22T00:37:31.650Z,61.97
2018-08-22T00:38:31.661Z,62.27
2018-08-22T00:39:31.628Z,62.27
2018-08-22T00:40:31.614Z,62.17
2018-08-22T00:41:31.607Z,62.67
2018-08-22T00:42:31.593Z,62.27
2018-08-22T00:43:31.581Z,62.47
2018-08-22T00:44:31.597Z,62.77
2018-08-22T00:45:31.559Z,61.97
2018-08-22T00:46:31.552Z,62.77
2018-08-22T00:47:31.540Z,62.87
2018-08-22T00:48:31.530Z,62.70
2018-08-22T00:49:31.519Z,61.67
2018-08-22T00:50:31.518Z,62.67
2018-08-22T00:51:31.496Z,62.57
2018-08-22T00:52:31.485Z,62.17
2018-08-22T00:53:31.471Z,62.50
2018-08-22T00:54:31.479Z,62.50
2018-08-22T00:55:31.455Z,62.87
2018-08-22T00:56:31.442Z,62.57
2018-08-22T00:57:31.431Z,62.87
2018-08-22T00:58:31.418Z,62.50
2018-08-22T00:59:31.421Z,62.70
2018-08-22T01:00:31.395Z,63.17
2018-08-22T01:01:31.389Z,62.70
2018-08-22T01:02:31.376Z,62.70
2018-08-22T01:03:31.382Z,62.70
2018-08-22T01:04:31.358Z,62.77
2018-08-22T01:05:31.345Z,62.80
2018-08-22T01:06:31.335Z,62.90
2018-08-22T01:07:31.338Z,62.90
2018-08-22T01:08:31.311Z,63.10
2018-08-22T01:09:31.301Z,63.10
2018-08-22T01:10:31.306Z,62.60
2018-08-22T01:11:31.276Z,62.90
2018-08-22T01:12:31.268Z,62.70
2018-08-22T01:13:31.254Z,62.67
2018-08-22T01:14:31.244Z,62.80
2018-08-22T01:15:31.243Z,62.80
2018-08-22T01:16:31.223Z,62.90
2018-08-22T01:17:31.215Z,62.90
2018-08-22T01:18:31.200Z,62.70
2018-08-22T01:19:31.194Z,62.80
2018-08-22T01:20:31.193Z,62.80
2018-08-22T01:21:31.171Z,62.90
2018-08-22T01:22:31.157Z,62.90
2018-08-22T01:23:31.163Z,62.80
2018-08-22T01:24:31.139Z,62.70
2018-08-22T01:25:31.128Z,62.70
2018-08-22T01:26:31.117Z,62.50
2018-08-22T01:27:31.123Z,62.80
2018-08-22T01:28:31.097Z,62.60
2018-08-22T01:29:31.085Z,63.00
2018-08-22T01:30:31.071Z,62.60
2018-08-22T01:31:31.060Z,62.90
2018-08-22T01:32:31.069Z,62.47
2018-08-22T01:33:31.036Z,62.67
2018-08-22T01:34:31.029Z,62.77
2018-08-22T01:35:31.016Z,62.67
2018-08-22T01:36:31.007Z,61.77
2018-08-22T01:37:31.011Z,61.97
2018-08-22T01:38:30.985Z,61.57
2018-08-22T01:39:30.972Z,61.67
2018-08-22T01:40:30.966Z,62.17
2018-08-22T01:41:30.950Z,61.77
2018-08-22T01:42:30.960Z,61.77
2018-08-22T01:43:30.931Z,61.77
2018-08-22T01:44:30.923Z,62.17
2018-08-22T01:45:30.910Z,61.47
2018-08-22T01:46:30.895Z,60.97
2018-08-22T01:47:30.910Z,61.77
2018-08-22T01:48:30.878Z,61.47
2018-08-22T01:49:30.865Z,61.87
2018-08-22T01:50:30.854Z,61.27
2018-08-22T01:51:30.846Z,60.57
2018-08-22T01:52:30.836Z,61.17
2018-08-22T01:53:30.836Z,60.47
2018-08-22T01:54:30.812Z,61.57
2018-08-22T01:55:30.802Z,61.47
2018-08-22T01:56:30.790Z,61.17
2018-08-22T01:57:30.777Z,61.77
2018-08-22T01:58:30.796Z,61.36
2018-08-22T01:59:30.759Z,60.97
2018-08-22T02:00:30.744Z,60.86
2018-08-22T02:01:30.735Z,61.07
2018-08-22T02:02:30.726Z,60.33
2018-08-22T02:03:30.714Z,61.34
2018-08-22T02:04:30.715Z,60.74
2018-08-22T02:05:30.692Z,60.53
2018-08-22T02:06:30.679Z,60.74
2018-08-22T02:07:30.671Z,60.53
2018-08-22T02:08:30.704Z,60.53
2018-08-22T02:09:30.649Z,60.84
2018-08-22T02:10:30.636Z,60.84
2018-08-22T02:11:30.626Z,61.04
2018-08-22T02:12:30.619Z,61.14
2018-08-22T02:13:30.607Z,60.74
2018-08-22T02:14:30.616Z,60.47
2018-08-22T02:15:30.583Z,61.34
2018-08-22T02:16:30.573Z,60.47
2018-08-22T02:17:30.563Z,60.74
2018-08-22T02:18:30.553Z,60.14
2018-08-22T02:19:30.540Z,60.84
2018-08-22T02:20:30.547Z,60.33
2018-08-22T02:21:30.519Z,60.33
2018-08-22T02:22:30.508Z,60.03
2018-08-22T02:23:30.494Z,59.44
2018-08-22T02:24:30.487Z,60.33
2018-08-22T02:25:30.476Z,59.64
2018-08-22T02:26:30.483Z,59.44
2018-08-22T02:27:30.452Z,59.53
2018-08-22T02:28:30.443Z,59.46
2018-08-22T02:29:30.432Z,59.44
2018-08-22T02:30:30.424Z,60.64
2018-08-22T02:31:30.410Z,59.64
2018-08-22T02:32:30.420Z,59.74
2018-08-22T02:33:30.388Z,59.94
2018-08-22T02:34:30.376Z,59.53
2018-08-22T02:35:30.369Z,59.64
2018-08-22T02:36:30.363Z,60.14
2018-08-22T02:37:30.343Z,59.44
2018-08-22T02:38:30.346Z,59.74
2018-08-22T02:39:30.321Z,59.64
2018-08-22T02:40:30.311Z,59.83
2018-08-22T02:41:30.299Z,59.83
2018-08-22T02:42:30.306Z,59.53
2018-08-22T02:43:30.291Z,59.83
2018-08-22T02:44:30.284Z,59.64
2018-08-22T02:45:30.256Z,59.53
2018-08-22T02:46:30.250Z,59.94
2018-08-22T02:47:30.236Z,60.24
2018-08-22T02:48:30.242Z,59.94
2018-08-22T02:49:30.251Z,59.83
2018-08-22T02:50:30.199Z,59.74
2018-08-22T02:51:30.195Z,59.94
2018-08-22T02:52:30.180Z,59.83
2018-08-22T02:53:30.176Z,59.83
2018-08-22T02:54:30.159Z,59.83
2018-08-22T02:55:30.160Z,59.74
2018-08-22T02:56:30.138Z,59.94
2018-08-22T02:57:30.130Z,59.64
2018-08-22T02:58:30.132Z,59.83
2018-08-22T02:59:30.103Z,59.64
2018-08-22T03:00:30.091Z,59.53
2018-08-22T03:01:30.081Z,59.64
2018-08-22T03:02:30.074Z,59.13
2018-08-22T03:03:30.076Z,59.53
2018-08-22T03:04:30.053Z,59.83
2018-08-22T03:05:30.037Z,59.83
2018-08-22T03:06:30.029Z,59.64
2018-08-22T03:07:30.019Z,59.94
2018-08-22T03:08:30.044Z,60.11
2018-08-22T03:09:29.997Z,59.64
2018-08-22T03:10:29.985Z,59.31
2018-08-22T03:11:29.974Z,60.21
2018-08-22T03:12:29.963Z,59.83
2018-08-22T03:13:29.950Z,59.53
2018-08-22T03:14:29.954Z,60.14
2018-08-22T03:15:29.939Z,60.24
2018-08-22T03:16:29.920Z,59.53
2018-08-22T03:17:29.908Z,59.64
2018-08-22T03:18:29.899Z,60.44
2018-08-22T03:19:29.888Z,60.03
2018-08-22T03:20:29.887Z,59.83
2018-08-22T03:21:29.867Z,59.50
2018-08-22T03:22:29.855Z,59.64
2018-08-22T03:23:29.845Z,59.83
2018-08-22T03:24:29.871Z,59.64
2018-08-22T03:25:29.820Z,60.24
2018-08-22T03:26:29.815Z,59.74
2018-08-22T03:27:29.819Z,59.64
2018-08-22T03:28:29.787Z,60.03
2018-08-22T03:29:29.786Z,59.44
2018-08-22T03:30:29.780Z,61.34
2018-08-22T03:31:29.759Z,61.01
2018-08-22T03:32:29.751Z,60.84
2018-08-22T03:33:29.772Z,60.03
2018-08-22T03:34:29.735Z,60.53
2018-08-22T03:35:29.711Z,60.64
2018-08-22T03:36:29.699Z,60.24
2018-08-22T03:37:29.688Z,60.53
2018-08-22T03:38:29.678Z,60.14
2018-08-22T03:39:29.689Z,60.24
2018-08-22T03:40:29.659Z,60.84
2018-08-22T03:41:29.689Z,60.74
2018-08-22T03:42:29.636Z,60.33
2018-08-22T03:43:29.624Z,60.44
2018-08-22T03:44:29.619Z,60.51
2018-08-22T03:45:29.603Z,60.91
2018-08-22T03:46:29.596Z,60.74
2018-08-22T03:47:29.593Z,60.84
2018-08-22T03:48:29.572Z,60.84
2018-08-22T03:49:29.560Z,61.24
2018-08-22T03:50:29.551Z,60.64
2018-08-22T03:51:29.573Z,60.84
2018-08-22T03:52:29.545Z,60.33
2018-08-22T03:53:29.517Z,60.64
2018-08-22T03:54:29.502Z,61.14
2018-08-22T03:55:29.491Z,61.44
2018-08-22T03:56:29.503Z,60.94
2018-08-22T03:57:29.474Z,60.84
2018-08-22T03:58:29.462Z,60.84
2018-08-22T03:59:29.447Z,60.84
2018-08-22T04:00:29.437Z,61.47
2018-08-22T04:01:29.427Z,61.24
2018-08-22T04:02:29.449Z,61.54
2018-08-22T04:03:29.406Z,60.53
2018-08-22T04:04:29.398Z,61.14
2018-08-22T04:05:29.385Z,61.47
2018-08-22T04:06:29.373Z,60.94
2018-08-22T04:07:29.364Z,61.24
2018-08-22T04:08:29.367Z,61.44
2018-08-22T04:09:29.337Z,61.04
2018-08-22T04:10:29.331Z,61.34
2018-08-22T04:11:29.317Z,62.04
2018-08-22T04:12:29.350Z,61.67
2018-08-22T04:13:29.298Z,61.94
2018-08-22T04:14:29.286Z,62.47
2018-08-22T04:15:29.277Z,61.87
2018-08-22T04:16:29.262Z,61.84
2018-08-22T04:17:29.257Z,61.47
2018-08-22T04:18:29.254Z,61.64
2018-08-22T04:19:29.231Z,62.24
2018-08-22T04:20:29.233Z,62.17
2018-08-22T04:21:29.231Z,62.64
2018-08-22T04:22:29.201Z,62.37
2018-08-22T04:23:29.198Z,61.77
2018-08-22T04:24:29.175Z,62.27
2018-08-22T04:25:29.163Z,62.27
2018-08-22T04:26:29.163Z,62.67
2018-08-22T04:27:29.145Z,62.57
2018-08-22T04:28:29.133Z,62.47
2018-08-22T04:29:29.134Z,62.67
2018-08-22T04:30:29.112Z,62.14
2018-08-22T04:31:29.112Z,62.57
2018-08-22T04:32:29.090Z,62.57
2018-08-22T04:33:29.077Z,62.27
2018-08-22T04:34:29.068Z,62.57
2018-08-22T04:35:29.068Z,62.77
2018-08-22T04:36:29.043Z,62.47
2018-08-22T04:37:29.056Z,62.57
2018-08-22T04:38:29.022Z,62.67
2018-08-22T04:39:29.014Z,63.17
2018-08-22T04:40:29.017Z,62.67
2018-08-22T04:41:28.992Z,62.67
2018-08-22T04:42:28.978Z,62.27
2018-08-22T04:43:28.970Z,62.67
2018-08-22T04:44:28.960Z,62.87
2018-08-22T04:45:28.964Z,63.17
2018-08-22T04:46:28.936Z,62.77
2018-08-22T04:47:28.928Z,63.28
2018-08-22T04:48:28.927Z,62.97
2018-08-22T04:49:28.906Z,62.97
2018-08-22T04:50:28.894Z,63.47
2018-08-22T04:51:28.891Z,63.07
2018-08-22T04:52:28.873Z,63.07
2018-08-22T04:53:28.863Z,63.57
2018-08-22T04:54:28.848Z,62.97
2018-08-22T04:55:28.837Z,63.37
2018-08-22T04:56:28.843Z,62.87
2018-08-22T04:57:28.818Z,63.28
2018-08-22T04:58:28.803Z,63.17
2018-08-22T04:59:28.811Z,63.37
2018-08-22T05:00:28.783Z,63.67
2018-08-22T05:01:28.791Z,63.37
2018-08-22T05:02:28.777Z,63.47
2018-08-22T05:03:28.762Z,63.47
2018-08-22T05:04:28.741Z,63.47
2018-08-22T05:05:28.731Z,63.47
2018-08-22T05:06:28.717Z,63.37
2018-08-22T05:07:28.708Z,63.87
2018-08-22T05:08:28.715Z,63.87
2018-08-22T05:09:28.693Z,63.57
2018-08-22T05:10:28.674Z,63.78
2018-08-22T05:11:28.664Z,63.57
2018-08-22T05:12:28.655Z,63.37
2018-08-22T05:13:28.655Z,63.78
2018-08-22T05:14:28.636Z,63.67
2018-08-22T05:15:28.619Z,63.87
2018-08-22T05:16:28.611Z,63.98
2018-08-22T05:17:28.597Z,63.98
2018-08-22T05:18:28.610Z,63.57
2018-08-22T05:19:28.575Z,64.58
2018-08-22T05:20:28.563Z,63.67
2018-08-22T05:21:28.554Z,63.87
2018-08-22T05:22:28.545Z,63.47
2018-08-22T05:23:28.535Z,63.57
2018-08-22T05:24:28.536Z,64.18
2018-08-22T05:25:28.512Z,63.78
2018-08-22T05:26:28.499Z,64.07
2018-08-22T05:27:28.488Z,63.37
2018-08-22T05:28:28.478Z,63.54
2018-08-22T05:29:28.467Z,63.67
2018-08-22T05:30:28.477Z,63.47
2018-08-22T05:31:28.444Z,63.84
2018-08-22T05:32:28.437Z,63.37
2018-08-22T05:33:28.422Z,63.34
2018-08-22T05:34:28.414Z,63.64
2018-08-22T05:35:28.419Z,63.84
2018-08-22T05:36:28.392Z,63.75
2018-08-22T05:37:28.382Z,63.75
2018-08-22T05:38:28.368Z,63.14
2018-08-22T05:39:28.360Z,63.34
2018-08-22T05:40:28.396Z,63.47
2018-08-22T05:41:28.338Z,63.45
2018-08-22T05:42:28.326Z,63.34
2018-08-22T05:43:28.312Z,63.64
2018-08-22T05:44:28.348Z,63.34
2018-08-22T05:45:28.294Z,63.34
2018-08-22T05:46:28.280Z,63.45
2018-08-22T05:47:28.271Z,63.34
2018-08-22T05:48:28.263Z,63.04
2018-08-22T05:49:28.250Z,63.11
2018-08-22T05:50:28.255Z,63.21
2018-08-22T05:51:28.229Z,63.21
2018-08-22T05:52:28.217Z,63.31
2018-08-22T05:53:28.202Z,63.42
2018-08-22T05:54:28.196Z,63.42
2018-08-22T05:55:28.184Z,62.71
2018-08-22T05:56:28.190Z,62.81
2018-08-22T05:57:28.215Z,62.61
2018-08-22T05:58:28.149Z,62.81
2018-08-22T05:59:28.142Z,62.61
2018-08-22T06:00:28.127Z,62.18
2018-08-22T06:01:28.116Z,62.68
2018-08-22T06:02:28.124Z,62.48
2018-08-22T06:03:28.210Z,62.08
2018-08-22T06:04:28.084Z,62.28
2018-08-22T06:05:28.073Z,61.75
2018-08-22T06:06:28.063Z,61.75
2018-08-22T06:07:28.051Z,61.85
2018-08-22T06:08:28.050Z,61.65
2018-08-22T06:09:28.031Z,61.65
2018-08-22T06:10:28.019Z,61.85
2018-08-22T06:11:28.009Z,61.85
2018-08-22T06:12:28.012Z,60.82
2018-08-22T06:13:27.988Z,61.40
2018-08-22T06:14:27.972Z,60.29
2018-08-22T06:15:27.964Z,59.04
2018-08-22T06:16:27.954Z,58.44
2018-08-22T06:17:27.959Z,57.78
2018-08-22T06:18:27.931Z,57.06
2018-08-22T06:19:27.921Z,56.26
2018-08-22T06:20:27.925Z,56.03
2018-08-22T06:21:27.900Z,55.91
2018-08-22T06:22:27.888Z,54.49
2018-08-22T06:23:27.876Z,54.88
2018-08-22T06:24:27.887Z,54.06
2018-08-22T06:25:27.903Z,53.96
2018-08-22T06:26:27.844Z,53.83
2018-08-22T06:27:27.831Z,53.14
2018-08-22T06:28:27.821Z,53.04
2018-08-22T06:29:27.810Z,52.81
2018-08-22T06:30:27.816Z,52.02
2018-08-22T06:31:27.800Z,52.62
2018-08-22T06:32:27.778Z,52.12
2018-08-22T06:33:27.767Z,52.49
2018-08-22T06:34:27.787Z,52.49
2018-08-22T06:35:27.761Z,52.69
2018-08-22T06:36:27.798Z,52.67
2018-08-22T06:37:27.723Z,51.62
2018-08-22T06:38:27.713Z,50.73
2018-08-22T06:39:27.704Z,50.51
2018-08-22T06:40:27.723Z,50.31
2018-08-22T06:41:27.681Z,50.48
2018-08-22T06:42:27.674Z,50.48
2018-08-22T06:43:27.657Z,49.69
2018-08-22T06:44:27.651Z,49.66
2018-08-22T06:45:27.640Z,48.85
2018-08-22T06:46:27.667Z,48.53
2018-08-22T06:47:27.619Z,48.53
2018-08-22T06:48:27.608Z,48.21
2018-08-22T06:49:27.596Z,47.69
2018-08-22T06:50:27.584Z,47.09
2018-08-22T06:51:27.575Z,47.61
2018-08-22T06:52:27.579Z,47.46
2018-08-22T06:53:27.555Z,48.77
2018-08-22T06:54:27.541Z,48.90
2018-08-22T06:55:27.532Z,49.71
2018-08-22T06:56:27.538Z,50.60
2018-08-22T06:57:27.506Z,50.28
2018-08-22T06:58:27.509Z,49.59
2018-08-22T06:59:27.483Z,49.81
2018-08-22T07:00:27.472Z,50.09
2018-08-22T07:01:27.475Z,49.81
2018-08-22T07:02:27.452Z,50.73
2018-08-22T07:03:27.441Z,50.51
2018-08-22T07:04:27.433Z,49.88
2018-08-22T07:05:27.419Z,49.91
2018-08-22T07:06:27.444Z,50.21
2018-08-22T07:07:27.397Z,50.33
2018-08-22T07:08:27.384Z,50.21
2018-08-22T07:09:27.374Z,48.99
2018-08-22T07:10:27.360Z,48.90
2018-08-22T07:11:27.351Z,48.90
2018-08-22T07:12:27.353Z,48.90
2018-08-22T07:13:27.334Z,49.79
2018-08-22T07:14:27.318Z,49.07
2018-08-22T07:15:27.308Z,49.07
2018-08-22T07:16:27.294Z,49.49
2018-08-22T07:17:27.300Z,48.90
2018-08-22T07:18:27.272Z,48.77
2018-08-22T07:19:27.261Z,48.90
2018-08-22T07:20:27.251Z,48.80
2018-08-22T07:21:27.243Z,49.79
2018-08-22T07:22:27.256Z,49.86
2018-08-22T07:23:27.224Z,48.75
2018-08-22T07:24:27.209Z,48.65
2018-08-22T07:25:27.198Z,48.50
2018-08-22T07:26:27.187Z,48.11
2018-08-22T07:27:27.179Z,47.61
2018-08-22T07:28:27.183Z,48.18
2018-08-22T07:29:27.157Z,47.00
2018-08-22T07:30:27.146Z,47.00
2018-08-22T07:31:27.136Z,47.22
2018-08-22T07:32:27.125Z,47.71
2018-08-22T07:33:27.127Z,47.83
2018-08-22T07:34:27.101Z,48.23
2018-08-22T07:35:27.091Z,47.63
2018-08-22T07:36:27.083Z,47.96
2018-08-22T07:37:27.072Z,48.77
2018-08-22T07:38:27.073Z,48.80
2018-08-22T07:39:27.049Z,48.90
2018-08-22T07:40:27.056Z,48.99
2018-08-22T07:41:27.029Z,49.09
2018-08-22T07:42:27.016Z,49.88
2018-08-22T07:43:27.007Z,49.74
2018-08-22T07:44:26.993Z,48.25
2018-08-22T07:45:27.005Z,48.53
2018-08-22T07:46:26.973Z,48.85
2018-08-22T07:47:26.963Z,48.33
2018-08-22T07:48:26.953Z,48.43
2018-08-22T07:49:26.942Z,48.13
2018-08-22T07:50:26.934Z,48.40
2018-08-22T07:51:26.935Z,48.18
2018-08-22T07:52:26.912Z,47.66
2018-08-22T07:53:26.924Z,47.19
2018-08-22T07:54:26.888Z,47.61
2018-08-22T07:55:26.881Z,48.13
2018-08-22T07:56:26.896Z,48.65
2018-08-22T07:57:26.873Z,48.67
2018-08-22T07:58:26.849Z,48.67
2018-08-22T07:59:26.838Z,48.87
2018-08-22T08:00:26.827Z,48.69
2018-08-22T08:01:26.815Z,49.59
2018-08-22T08:02:26.823Z,50.38
2018-08-22T08:03:26.797Z,49.69
2018-08-22T08:04:26.784Z,49.66
2018-08-22T08:05:26.840Z,48.65
2018-08-22T08:06:26.777Z,48.45
2018-08-22T08:07:26.776Z,48.82
2018-08-22T08:08:26.779Z,48.63
2018-08-22T08:09:26.729Z,48.63
2018-08-22T08:10:26.721Z,48.90
2018-08-22T08:11:26.714Z,48.08
2018-08-22T08:12:26.699Z,46.89
2018-08-22T08:13:26.704Z,47.17
2018-08-22T08:14:26.680Z,46.67
2018-08-22T08:15:26.669Z,46.38
2018-08-22T08:16:26.652Z,46.89
2018-08-22T08:17:26.660Z,48.30
2018-08-22T08:18:26.647Z,48.70
2018-08-22T08:19:26.642Z,47.19
2018-08-22T08:20:26.613Z,47.47
2018-08-22T08:21:26.603Z,46.36
2018-08-22T08:22:26.597Z,46.53
2018-08-22T08:23:26.582Z,45.62
2018-08-22T08:24:26.596Z,44.83
2018-08-22T08:25:26.561Z,45.74
2018-08-22T08:26:26.573Z,45.64
2018-08-22T08:27:26.541Z,45.74
2018-08-22T08:28:26.530Z,46.14
2018-08-22T08:29:26.526Z,45.25
2018-08-22T08:30:26.536Z,45.35
2018-08-22T08:31:26.503Z,45.03
2018-08-22T08:32:26.490Z,45.25
2018-08-22T08:33:26.479Z,45.72
2018-08-22T08:34:26.468Z,45.30
2018-08-22T08:35:26.475Z,44.81
2018-08-22T08:36:26.448Z,43.43
2018-08-22T08:37:26.444Z,45.10
2018-08-22T08:38:26.431Z,44.29
2018-08-22T08:39:26.419Z,44.20
2018-08-22T08:40:26.423Z,43.38
2018-08-22T08:41:26.553Z,43.78
2018-08-22T08:42:26.388Z,44.07
2018-08-22T08:43:26.521Z,42.68
2018-08-22T08:44:26.368Z,43.80
2018-08-22T08:45:26.374Z,43.92
2018-08-22T08:46:26.347Z,45.13
2018-08-22T08:47:26.336Z,44.46
2018-08-22T08:48:26.325Z,46.23
2018-08-22T08:49:26.354Z,45.15
2018-08-22T08:50:26.327Z,45.74
2018-08-22T08:51:26.315Z,45.25
2018-08-22T08:52:26.309Z,45.42
2018-08-22T08:53:26.275Z,45.13
2018-08-22T08:54:26.265Z,45.13
2018-08-22T08:55:26.253Z,45.40
2018-08-22T08:56:26.259Z,44.64
2018-08-22T08:57:26.317Z,45.20
2018-08-22T08:58:26.224Z,43.74
2018-08-22T08:59:26.213Z,44.83
2018-08-22T09:00:26.202Z,44.26
2018-08-22T09:01:26.225Z,45.13
2018-08-22T09:02:26.180Z,43.74
2018-08-22T09:03:26.201Z,44.54
2018-08-22T09:04:26.188Z,45.05
2018-08-22T09:05:26.151Z,44.85
2018-08-22T09:06:26.146Z,45.72
2018-08-22T09:07:26.131Z,44.02
2018-08-22T09:08:26.121Z,44.71
2018-08-22T09:09:26.126Z,43.70
2018-08-22T09:10:27.013Z,44.10
2018-08-22T09:11:26.088Z,42.79
2018-08-22T09:12:26.084Z,42.83
2018-08-22T09:13:26.072Z,44.81
2018-08-22T09:14:26.078Z,43.60
2018-08-22T09:15:26.175Z,43.48
2018-08-22T09:16:26.040Z,42.87
2018-08-22T09:17:26.139Z,43.17
2018-08-22T09:18:26.037Z,42.65
2018-08-22T09:19:26.009Z,42.65
2018-08-22T09:20:26.001Z,41.47
2018-08-22T09:21:26.041Z,41.27
2018-08-22T09:22:25.982Z,40.98
2018-08-22T09:23:25.984Z,42.38
2018-08-22T09:24:25.980Z,41.69
2018-08-22T09:25:25.951Z,40.25
2018-08-22T09:26:25.958Z,41.63
2018-08-22T09:27:25.929Z,43.29
2018-08-22T09:28:25.922Z,40.23
2018-08-22T09:29:25.941Z,41.69
2018-08-22T09:30:25.898Z,40.48
2018-08-22T09:31:25.903Z,39.92
2018-08-22T09:32:25.880Z,41.20
2018-08-22T09:33:25.867Z,40.41
2018-08-22T09:34:25.910Z,41.49
2018-08-22T09:35:25.876Z,41.67
2018-08-22T09:36:25.859Z,41.45
2018-08-22T09:37:25.830Z,41.14
2018-08-22T09:38:25.817Z,40.31
2018-08-22T09:39:25.868Z,38.07
2018-08-22T09:40:25.797Z,39.17
2018-08-22T09:41:25.803Z,39.34
2018-08-22T09:42:25.781Z,38.56
2018-08-22T09:43:25.768Z,39.15
2018-08-22T09:44:25.774Z,39.37
2018-08-22T09:45:25.750Z,39.44
2018-08-22T09:46:25.774Z,38.93
2018-08-22T09:47:25.730Z,38.54
2018-08-22T09:48:25.760Z,37.85
2018-08-22T09:49:25.711Z,38.34
2018-08-22T09:50:25.701Z,38.34
2018-08-22T09:51:25.691Z,39.03
2018-08-22T09:52:25.678Z,38.62
2018-08-22T09:53:25.668Z,37.84
2018-08-22T09:54:25.675Z,39.01
2018-08-22T09:55:25.673Z,38.13
2018-08-22T09:56:25.653Z,38.31
2018-08-22T09:57:25.628Z,38.34
2018-08-22T09:58:25.623Z,38.93
2018-08-22T09:59:25.611Z,40.09
2018-08-22T10:00:25.616Z,37.03
2018-08-22T10:01:25.589Z,37.40
2018-08-22T10:02:25.582Z,35.34
2018-08-22T10:03:25.572Z,34.93
2018-08-22T10:04:25.563Z,35.21
2018-08-22T10:05:25.591Z,35.52
2018-08-22T10:06:25.601Z,35.52
2018-08-22T10:07:25.553Z,37.21
2018-08-22T10:08:25.521Z,35.74
2018-08-22T10:09:25.544Z,35.93
2018-08-22T10:10:25.501Z,34.97
2018-08-22T10:11:25.508Z,35.08
2018-08-22T10:12:25.484Z,35.69
2018-08-22T10:13:25.474Z,34.31
2018-08-22T10:14:25.461Z,35.39
2018-08-22T10:15:25.452Z,36.67
2018-08-22T10:16:25.460Z,38.34
2018-08-22T10:17:25.471Z,38.62
2018-08-22T10:18:25.425Z,37.99
2018-08-22T10:19:25.416Z,37.58
2018-08-22T10:20:25.403Z,36.58
2018-08-22T10:21:25.408Z,37.25
2018-08-22T10:22:25.399Z,35.29
2018-08-22T10:23:25.373Z,35.86
2018-08-22T10:24:25.365Z,35.08
2018-08-22T10:25:25.370Z,34.77
2018-08-22T10:26:25.365Z,33.53
2018-08-22T10:27:25.334Z,34.54
2018-08-22T10:28:25.344Z,35.54
2018-08-22T10:29:25.317Z,34.95
2018-08-22T10:30:25.307Z,35.74
2018-08-22T10:31:25.297Z,36.70
2018-08-22T10:32:25.313Z,34.62
2018-08-22T10:33:25.275Z,35.00
2018-08-22T10:34:25.267Z,34.78
2018-08-22T10:35:25.258Z,34.39
2018-08-22T10:36:25.247Z,34.41
2018-08-22T10:37:25.235Z,35.31
2018-08-22T10:38:25.241Z,35.11
2018-08-22T10:39:25.266Z,34.95
2018-08-22T10:40:25.205Z,36.16
2018-08-22T10:41:25.197Z,36.97
2018-08-22T10:42:25.200Z,36.97
2018-08-22T10:43:25.178Z,37.54
2018-08-22T10:44:25.227Z,37.80
2018-08-22T10:45:25.157Z,36.99
2018-08-22T10:46:25.164Z,35.50
2018-08-22T10:47:25.139Z,35.02
2018-08-22T10:48:25.128Z,35.68
2018-08-22T10:49:25.157Z,36.14
2018-08-22T10:50:25.161Z,35.83
2018-08-22T10:51:25.126Z,35.03
2018-08-22T10:52:25.089Z,35.40
2018-08-22T10:53:25.080Z,34.03
2018-08-22T10:54:25.070Z,33.85
2018-08-22T10:55:25.078Z,33.67
2018-08-22T10:56:25.057Z,33.98
2018-08-22T10:57:25.062Z,34.77
2018-08-22T10:58:25.032Z,35.17
2018-08-22T10:59:25.020Z,34.98
2018-08-22T11:00:25.025Z,35.19
2018-08-22T11:01:25.000Z,35.80
2018-08-22T11:02:24.992Z,35.50
2018-08-22T11:03:24.994Z,35.62
2018-08-22T11:04:24.971Z,35.13
2018-08-22T11:05:24.959Z,35.80
2018-08-22T11:06:24.950Z,35.02
2018-08-22T11:07:24.957Z,34.61
2018-08-22T11:08:24.956Z,34.39
2018-08-22T11:09:24.923Z,34.98
2018-08-22T11:10:24.912Z,35.16
2018-08-22T11:11:24.903Z,33.87
2018-08-22T11:12:24.893Z,34.96
2018-08-22T11:13:24.888Z,34.36
2018-08-22T11:14:24.884Z,34.14
2018-08-22T11:15:24.861Z,32.58
2018-08-22T11:16:24.854Z,33.67
2018-08-22T11:17:24.859Z,34.08
2018-08-22T11:18:24.850Z,34.59
2018-08-22T11:19:24.823Z,35.08
2018-08-22T11:20:24.815Z,35.08
2018-08-22T11:21:24.806Z,35.16
2018-08-22T11:22:24.834Z,35.37
2018-08-22T11:23:24.800Z,34.69
2018-08-22T11:24:24.776Z,35.76
2018-08-22T11:25:24.779Z,34.47
2018-08-22T11:26:24.755Z,35.25
2018-08-22T11:27:24.747Z,34.47
2018-08-22T11:28:24.736Z,35.16
2018-08-22T11:29:24.744Z,34.38
2018-08-22T11:30:24.719Z,33.89
2018-08-22T11:31:24.714Z,34.69
2018-08-22T11:32:24.703Z,35.47
2018-08-22T11:33:24.691Z,34.30
2018-08-22T11:34:24.742Z,35.37
2018-08-22T11:35:24.672Z,35.29
2018-08-22T11:36:24.681Z,35.19
2018-08-22T11:37:24.670Z,35.08
2018-08-22T11:38:24.642Z,34.88
2018-08-22T11:39:24.636Z,35.45
2018-08-22T11:40:24.628Z,34.94
2018-08-22T11:41:24.630Z,34.34
2018-08-22T11:42:24.608Z,35.44
2018-08-22T11:43:24.594Z,35.32
2018-08-22T11:44:24.591Z,35.04
2018-08-22T11:45:24.579Z,34.74
2018-08-22T11:46:24.580Z,35.03
2018-08-22T11:47:24.555Z,34.24
2018-08-22T11:48:24.546Z,34.94
2018-08-22T11:49:24.542Z,35.14
2018-08-22T11:50:24.568Z,34.94
2018-08-22T11:51:24.518Z,34.84
2018-08-22T11:52:24.509Z,34.74
2018-08-22T11:53:24.497Z,35.01
2018-08-22T11:54:24.486Z,34.91
2018-08-22T11:55:24.477Z,34.13
2018-08-22T11:56:24.490Z,34.52
2018-08-22T11:57:24.463Z,34.31
2018-08-22T11:58:24.451Z,34.21
2018-08-22T11:59:24.439Z,34.48
2018-08-22T12:00:24.427Z,33.70
2018-08-22T12:01:24.416Z,33.62
2018-08-22T12:02:24.423Z,33.45
2018-08-22T12:03:24.394Z,34.16
2018-08-22T12:04:24.392Z,34.86
2018-08-22T12:05:24.381Z,35.29
2018-08-22T12:06:24.385Z,37.45
2018-08-22T12:07:24.362Z,35.86
2018-08-22T12:08:24.351Z,35.65
2018-08-22T12:09:24.339Z,34.94
2018-08-22T12:10:24.331Z,35.03
2018-08-22T12:11:24.367Z,35.21
2018-08-22T12:12:24.312Z,34.60
2018-08-22T12:13:24.306Z,34.19
2018-08-22T12:14:24.297Z,34.86
2018-08-22T12:15:24.283Z,32.62
2018-08-22T12:16:24.272Z,33.61
2018-08-22T12:17:24.307Z,34.19
2018-08-22T12:18:24.252Z,33.79
2018-08-22T12:19:24.243Z,33.98
2018-08-22T12:20:24.235Z,32.91
2018-08-22T12:21:24.223Z,33.98
2018-08-22T12:22:24.213Z,32.89
2018-08-22T12:23:24.274Z,33.01
2018-08-22T12:24:24.193Z,33.40
2018-08-22T12:25:24.185Z,33.90
2018-08-22T12:26:24.178Z,33.62
2018-08-22T12:27:24.184Z,33.64
2018-08-22T12:28:24.156Z,34.34
2018-08-22T12:29:24.151Z,34.24
2018-08-22T12:30:24.137Z,34.93
2018-08-22T12:31:24.127Z,34.93
2018-08-22T12:32:24.128Z,34.62
2018-08-22T12:33:24.122Z,34.42
2018-08-22T12:34:24.098Z,34.21
2018-08-22T12:35:24.089Z,33.33
2018-08-22T12:36:24.080Z,33.62
2018-08-22T12:37:24.068Z,33.84
2018-08-22T12:38:24.072Z,34.23
2018-08-22T12:39:24.072Z,34.33
2018-08-22T12:40:24.038Z,34.72
2018-08-22T12:41:24.036Z,35.30
2018-08-22T12:42:24.020Z,35.11
2018-08-22T12:43:24.011Z,33.64
2018-08-22T12:44:24.019Z,34.80
2018-08-22T12:45:24.003Z,33.33
2018-08-22T12:46:24.000Z,33.04
2018-08-22T12:47:23.970Z,33.61
2018-08-22T12:48:23.961Z,34.50
2018-08-22T12:49:23.950Z,33.51
2018-08-22T12:50:24.012Z,33.98
2018-08-22T12:51:23.940Z,33.59
2018-08-22T12:52:23.936Z,32.99